createdAt,value
2017-04-23T00:01:05.974Z,99.99
2017-04-23T00:02:17.005Z,99.99
2017-04-23T00:03:28.023Z,99.99
2017-04-23T00:04:39.037Z,99.99
2017-04-23T00:05:50.112Z,99.99
2017-04-23T00:07:01.132Z,99.99
2017-04-23T00:08:12.157Z,99.99
2017-04-23T00:09:23.173Z,99.99
2017-04-23T00:10:34.594Z,99.99
2017-04-23T00:11:45.623Z,99.99
2017-04-23T00:12:56.646Z,99.99
2017-04-23T00:14:07.695Z,99.99
2017-04-23T00:15:18.728Z,99.99
2017-04-23T00:16:29.795Z,99.99
2017-04-23T00:17:41.034Z,99.99
2017-04-23T00:18:52.265Z,99.99
2017-04-23T00:20:03.297Z,99.99
2017-04-23T00:21:14.319Z,99.99
2017-04-23T00:22:25.544Z,99.99
2017-04-23T00:23:36.575Z,99.99
2017-04-23T00:24:47.823Z,99.99
2017-04-23T00:25:59.042Z,99.99
2017-04-23T00:27:10.063Z,99.99
2017-04-23T00:28:21.075Z,99.99
2017-04-23T00:29:32.091Z,99.99
2017-04-23T00:30:43.106Z,99.99
2017-04-23T00:31:54.335Z,99.99
2017-04-23T00:33:05.377Z,99.99
2017-04-23T00:34:16.398Z,99.99
2017-04-23T00:35:27.425Z,99.99
2017-04-23T00:36:38.445Z,99.99
2017-04-23T00:37:49.487Z,99.99
2017-04-23T00:39:00.755Z,99.99
2017-04-23T00:40:11.789Z,99.99
2017-04-23T00:41:23.029Z,99.99
2017-04-23T00:42:34.057Z,99.99
2017-04-23T00:43:45.079Z,99.99
2017-04-23T00:44:56.090Z,99.99
2017-04-23T00:46:07.108Z,99.99
2017-04-23T00:47:18.128Z,99.99
2017-04-23T00:48:29.203Z,99.99
2017-04-23T00:49:40.445Z,99.99
2017-04-23T00:50:51.472Z,99.99
2017-04-23T00:52:02.495Z,99.99
2017-04-23T00:53:13.515Z,99.99
2017-04-23T00:54:24.739Z,99.99
2017-04-23T00:55:35.780Z,99.99
2017-04-23T00:56:47.000Z,99.99
2017-04-23T00:57:58.019Z,99.99
2017-04-23T00:59:09.082Z,99.99
2017-04-23T01:00:20.110Z,99.99
2017-04-23T01:01:31.140Z,99.99
2017-04-23T01:02:42.154Z,99.99
2017-04-23T01:03:53.179Z,99.99
2017-04-23T01:05:04.250Z,99.99
2017-04-23T01:06:15.481Z,99.99
2017-04-23T01:07:26.504Z,99.99
2017-04-23T01:08:37.523Z,99.99
2017-04-23T01:09:48.558Z,99.99
2017-04-23T01:10:59.588Z,99.99
2017-04-23T01:12:10.623Z,99.99
2017-04-23T01:13:21.656Z,99.99
2017-04-23T01:14:32.874Z,99.99
2017-04-23T01:15:44.092Z,99.99
2017-04-23T01:16:55.523Z,99.99
2017-04-23T01:18:06.540Z,99.99
2017-04-23T01:19:17.764Z,99.99
2017-04-23T01:20:28.802Z,99.99
2017-04-23T01:21:39.873Z,99.99
2017-04-23T01:22:50.889Z,99.99
2017-04-23T01:24:01.925Z,99.99
2017-04-23T01:25:13.187Z,99.99
2017-04-23T01:26:24.225Z,99.99
2017-04-23T01:27:35.239Z,99.99
2017-04-23T01:28:46.261Z,99.99
2017-04-23T01:29:57.287Z,99.99
2017-04-23T01:31:08.322Z,99.99
2017-04-23T01:32:19.386Z,99.99
2017-04-23T01:33:30.413Z,99.99
2017-04-23T01:34:41.441Z,99.99
2017-04-23T01:35:52.465Z,99.99
2017-04-23T01:37:03.487Z,99.99
2017-04-23T01:38:14.512Z,99.99
2017-04-23T01:39:25.562Z,99.99
2017-04-23T01:40:36.575Z,99.99
2017-04-23T01:41:47.804Z,99.99
2017-04-23T01:42:58.879Z,99.99
2017-04-23T01:44:10.100Z,99.99
2017-04-23T01:45:21.118Z,99.99
2017-04-23T01:46:32.141Z,99.99
2017-04-23T01:47:43.161Z,99.99
2017-04-23T01:48:54.230Z,99.99
2017-04-23T01:50:05.253Z,99.99
2017-04-23T01:51:16.477Z,99.99
2017-04-23T01:52:27.499Z,99.99
2017-04-23T01:53:38.731Z,99.99
2017-04-23T01:54:49.964Z,99.99
2017-04-23T01:56:00.985Z,99.99
2017-04-23T01:57:12.212Z,99.99
2017-04-23T01:58:23.449Z,99.99
2017-04-23T01:59:34.478Z,99.99
2017-04-23T02:00:45.518Z,99.99
2017-04-23T02:01:56.543Z,99.99
2017-04-23T02:03:07.557Z,99.99
2017-04-23T02:04:18.785Z,99.99
2017-04-23T02:05:29.806Z,99.99
2017-04-23T02:06:40.821Z,99.99
2017-04-23T02:07:51.835Z,99.99
2017-04-23T02:09:02.863Z,99.99
2017-04-23T02:10:14.144Z,99.99
2017-04-23T02:11:25.169Z,99.99
2017-04-23T02:12:36.599Z,99.99
2017-04-23T02:13:47.629Z,99.99
2017-04-23T02:14:58.657Z,99.99
2017-04-23T02:16:09.689Z,99.99
2017-04-23T02:17:20.727Z,99.99
2017-04-23T02:18:31.945Z,99.99
2017-04-23T02:19:42.967Z,99.99
2017-04-23T02:20:54.036Z,99.99
2017-04-23T02:22:05.062Z,99.99
2017-04-23T02:23:16.092Z,99.99
2017-04-23T02:24:27.140Z,99.99
2017-04-23T02:25:38.165Z,99.99
2017-04-23T02:26:49.186Z,99.99
2017-04-23T02:28:00.215Z,99.99
2017-04-23T02:29:11.240Z,99.99
2017-04-23T02:30:22.276Z,99.99
2017-04-23T02:31:33.355Z,99.99
2017-04-23T02:32:44.388Z,99.99
2017-04-23T02:33:55.422Z,99.99
2017-04-23T02:35:06.440Z,99.99
2017-04-23T02:36:17.460Z,99.99
2017-04-23T02:37:28.472Z,99.99
2017-04-23T02:38:39.493Z,99.99
2017-04-23T02:39:50.739Z,99.99
2017-04-23T02:41:01.768Z,99.99
2017-04-23T02:42:12.987Z,99.99
2017-04-23T02:43:24.461Z,99.99
2017-04-23T02:44:35.472Z,99.99
2017-04-23T02:45:46.699Z,99.99
2017-04-23T02:46:57.721Z,99.99
2017-04-23T02:48:08.745Z,99.99
2017-04-23T02:49:19.975Z,99.99
2017-04-23T02:50:30.993Z,99.99
2017-04-23T02:51:42.018Z,99.99
2017-04-23T02:52:53.082Z,99.99
2017-04-23T02:54:04.314Z,99.99
2017-04-23T02:55:15.331Z,99.99
2017-04-23T02:56:26.365Z,99.99
2017-04-23T02:57:37.597Z,99.99
2017-04-23T02:58:48.621Z,99.99
2017-04-23T02:59:59.639Z,99.99
2017-04-23T03:01:10.865Z,99.99
2017-04-23T03:02:21.890Z,99.99
2017-04-23T03:03:32.963Z,99.99
2017-04-23T03:04:43.995Z,99.99
2017-04-23T03:05:55.027Z,99.99
2017-04-23T03:07:06.047Z,99.99
2017-04-23T03:08:17.059Z,99.99
2017-04-23T03:09:28.092Z,99.99
2017-04-23T03:10:39.326Z,99.99
2017-04-23T03:11:50.561Z,99.99
2017-04-23T03:13:01.589Z,99.99
2017-04-23T03:14:12.634Z,99.99
2017-04-23T03:15:23.649Z,99.99
2017-04-23T03:16:35.145Z,99.99
2017-04-23T03:17:46.169Z,99.99
2017-04-23T03:18:57.187Z,99.99
2017-04-23T03:20:08.219Z,99.99
2017-04-23T03:21:19.251Z,99.99
2017-04-23T03:22:30.284Z,99.99
2017-04-23T03:23:41.311Z,99.99
2017-04-23T03:24:52.329Z,99.99
2017-04-23T03:26:03.405Z,99.99
2017-04-23T03:27:14.439Z,99.99
2017-04-23T03:28:25.472Z,99.99
2017-04-23T03:29:36.505Z,99.99
2017-04-23T03:30:47.523Z,99.99
2017-04-23T03:31:58.553Z,99.99
2017-04-23T03:33:09.586Z,99.99
2017-04-23T03:34:20.833Z,99.99
2017-04-23T03:35:31.873Z,99.99
2017-04-23T03:36:42.901Z,99.99
2017-04-23T03:37:53.929Z,99.99
2017-04-23T03:39:04.957Z,99.99
2017-04-23T03:40:16.029Z,99.99
2017-04-23T03:41:27.050Z,99.99
2017-04-23T03:42:38.070Z,99.99
2017-04-23T03:43:49.098Z,99.99
2017-04-23T03:45:00.114Z,99.99
2017-04-23T03:46:11.150Z,99.99
2017-04-23T03:47:22.169Z,99.99
2017-04-23T03:48:33.190Z,99.99
2017-04-23T03:49:44.211Z,99.99
2017-04-23T03:50:55.304Z,99.99
2017-04-23T03:52:06.331Z,99.99
2017-04-23T03:53:17.351Z,99.99
2017-04-23T03:54:28.579Z,99.99
2017-04-23T03:55:39.799Z,99.99
2017-04-23T03:56:51.075Z,99.99
2017-04-23T03:58:02.095Z,99.99
2017-04-23T03:59:13.104Z,99.99
2017-04-23T04:00:24.335Z,99.99
2017-04-23T04:01:35.350Z,99.99
2017-04-23T04:02:46.379Z,99.99
2017-04-23T04:03:57.416Z,99.99
2017-04-23T04:05:08.642Z,99.99
2017-04-23T04:06:19.659Z,99.99
2017-04-23T04:07:30.729Z,99.99
2017-04-23T04:08:41.965Z,99.99
2017-04-23T04:09:53.015Z,99.99
2017-04-23T04:11:04.043Z,99.99
2017-04-23T04:12:15.057Z,99.99
2017-04-23T04:13:26.089Z,99.99
2017-04-23T04:14:37.115Z,99.99
2017-04-23T04:15:48.141Z,99.99
2017-04-23T04:16:59.151Z,99.99
2017-04-23T04:18:10.227Z,99.99
2017-04-23T04:19:21.257Z,99.99
2017-04-23T04:20:32.279Z,99.99
2017-04-23T04:21:43.294Z,99.99
2017-04-23T04:22:54.314Z,99.99
2017-04-23T04:24:05.335Z,99.99
2017-04-23T04:25:16.358Z,99.99
2017-04-23T04:26:27.379Z,99.99
2017-04-23T04:27:38.629Z,99.99
2017-04-23T04:28:49.723Z,99.99
2017-04-23T04:30:00.745Z,99.99
2017-04-23T04:31:11.959Z,99.99
2017-04-23T04:32:22.985Z,99.99
2017-04-23T04:33:34.205Z,99.99
2017-04-23T04:34:45.293Z,99.99
2017-04-23T04:35:56.320Z,99.99
2017-04-23T04:37:07.328Z,99.99
2017-04-23T04:38:18.342Z,99.99
2017-04-23T04:39:29.575Z,99.99
2017-04-23T04:40:40.601Z,99.99
2017-04-23T04:41:51.812Z,99.99
2017-04-23T04:43:02.836Z,99.99
2017-04-23T04:44:14.060Z,99.99
2017-04-23T04:45:25.291Z,99.99
2017-04-23T04:46:36.360Z,99.99
2017-04-23T04:47:47.391Z,99.99
2017-04-23T04:48:58.612Z,99.99
2017-04-23T04:50:09.633Z,99.99
2017-04-23T04:51:20.649Z,99.99
2017-04-23T04:52:32.273Z,99.99
2017-04-23T04:53:43.303Z,99.99
2017-04-23T04:54:54.522Z,99.99
2017-04-23T04:56:05.998Z,99.99
2017-04-23T04:57:17.218Z,99.99
2017-04-23T04:58:28.444Z,99.99
2017-04-23T04:59:39.469Z,99.99
2017-04-23T05:00:50.491Z,99.99
2017-04-23T05:02:01.517Z,99.99
2017-04-23T05:03:12.548Z,99.99
2017-04-23T05:04:23.572Z,99.99
2017-04-23T05:05:34.592Z,99.99
2017-04-23T05:06:45.678Z,99.99
2017-04-23T05:07:56.705Z,99.99
2017-04-23T05:09:07.932Z,99.99
2017-04-23T05:10:18.953Z,99.99
2017-04-23T05:11:30.176Z,99.99
2017-04-23T05:12:41.209Z,99.99
2017-04-23T05:13:52.265Z,99.99
2017-04-23T05:15:03.284Z,99.99
2017-04-23T05:16:14.316Z,99.99
2017-04-23T05:17:25.339Z,99.99
2017-04-23T05:18:36.371Z,99.99
2017-04-23T05:19:47.403Z,99.99
2017-04-23T05:20:58.437Z,99.99
2017-04-23T05:22:09.478Z,99.99
2017-04-23T05:23:20.688Z,99.99
2017-04-23T05:24:31.712Z,99.99
2017-04-23T05:25:42.946Z,99.99
2017-04-23T05:26:53.961Z,99.99
2017-04-23T05:28:05.189Z,99.99
2017-04-23T05:29:16.260Z,99.99
2017-04-23T05:30:27.284Z,99.99
2017-04-23T05:31:38.312Z,99.99
2017-04-23T05:32:49.347Z,99.99
2017-04-23T05:34:00.372Z,99.99
2017-04-23T05:35:11.586Z,99.99
2017-04-23T05:36:22.604Z,99.99
2017-04-23T05:37:33.628Z,99.99
2017-04-23T05:38:44.702Z,99.99
2017-04-23T05:39:55.737Z,99.99
2017-04-23T05:41:06.770Z,99.99
2017-04-23T05:42:17.806Z,99.99
2017-04-23T05:43:28.832Z,99.99
2017-04-23T05:44:40.060Z,99.99
2017-04-23T05:45:51.093Z,99.99
2017-04-23T05:47:02.333Z,99.99
2017-04-23T05:48:13.357Z,99.99
2017-04-23T05:49:24.639Z,99.99
2017-04-23T05:50:35.873Z,99.99
2017-04-23T05:51:46.900Z,99.99
2017-04-23T05:52:57.916Z,99.99
2017-04-23T05:54:09.345Z,99.99
2017-04-23T05:55:20.372Z,99.99
2017-04-23T05:56:31.400Z,99.99
2017-04-23T05:57:42.436Z,99.99
2017-04-23T05:58:53.665Z,99.99
2017-04-23T06:00:04.697Z,99.99
2017-04-23T06:01:15.729Z,99.99
2017-04-23T06:02:26.765Z,99.99
2017-04-23T06:03:37.789Z,99.99
2017-04-23T06:04:48.811Z,99.99
2017-04-23T06:05:59.844Z,99.99
2017-04-23T06:07:10.865Z,99.99
2017-04-23T06:08:21.899Z,99.99
2017-04-23T06:09:32.928Z,99.99
2017-04-23T06:10:43.953Z,99.99
2017-04-23T06:11:55.032Z,99.99
2017-04-23T06:13:06.069Z,99.99
2017-04-23T06:14:17.101Z,99.99
2017-04-23T06:15:28.331Z,99.99
2017-04-23T06:16:39.349Z,99.99
2017-04-23T06:17:50.374Z,99.99
2017-04-23T06:19:01.406Z,99.99
2017-04-23T06:20:12.426Z,99.99
2017-04-23T06:21:23.707Z,99.99
2017-04-23T06:22:34.732Z,98.97
2017-04-23T06:23:45.751Z,99.99
2017-04-23T06:24:56.788Z,99.99
2017-04-23T06:26:07.816Z,99.99
2017-04-23T06:27:19.047Z,99.99
2017-04-23T06:28:30.073Z,99.99
2017-04-23T06:29:41.107Z,98.12
2017-04-23T06:30:52.346Z,98.4
2017-04-23T06:32:03.419Z,97.92
2017-04-23T06:33:14.448Z,99.73
2017-04-23T06:34:25.483Z,97.27
2017-04-23T06:35:36.508Z,96.41
2017-04-23T06:36:47.549Z,97.64
2017-04-23T06:37:58.625Z,97.27
2017-04-23T06:39:09.690Z,98.88
2017-04-23T06:40:20.708Z,96.6
2017-04-23T06:41:31.741Z,96.5
2017-04-23T06:42:42.958Z,93.23
2017-04-23T06:43:53.988Z,90.94
2017-04-23T06:45:05.012Z,87.57
2017-04-23T06:46:16.060Z,86.57
2017-04-23T06:47:27.285Z,83.09
2017-04-23T06:48:38.539Z,80.99
2017-04-23T06:49:49.619Z,79.03
2017-04-23T06:51:01.060Z,77.42
2017-04-23T06:52:12.489Z,77.98
2017-04-23T06:53:23.712Z,78.27
2017-04-23T06:54:34.748Z,80.42
2017-04-23T06:55:45.779Z,80.95
2017-04-23T06:56:56.803Z,82.38
2017-04-23T06:58:07.827Z,82.57
2017-04-23T06:59:18.909Z,85.33
2017-04-23T07:00:30.142Z,85.14
2017-04-23T07:01:41.379Z,86.14
2017-04-23T07:02:52.408Z,88.42
2017-04-23T07:04:03.454Z,88.04
2017-04-23T07:05:14.468Z,87.57
2017-04-23T07:06:25.705Z,88.8
2017-04-23T07:07:36.741Z,90.04
2017-04-23T07:08:47.770Z,88.9
2017-04-23T07:09:58.856Z,88.33
2017-04-23T07:11:10.087Z,90
2017-04-23T07:12:21.107Z,88.38
2017-04-23T07:13:32.133Z,89.8
2017-04-23T07:14:43.164Z,91.04
2017-04-23T07:15:54.195Z,89.9
2017-04-23T07:17:05.214Z,89.23
2017-04-23T07:18:16.242Z,90
2017-04-23T07:19:27.282Z,89.33
2017-04-23T07:20:38.375Z,91.52
2017-04-23T07:21:49.408Z,90.37
2017-04-23T07:23:00.433Z,91.08
2017-04-23T07:24:11.461Z,91.28
2017-04-23T07:25:22.506Z,89.75
2017-04-23T07:26:33.530Z,90.33
2017-04-23T07:27:44.557Z,88.42
2017-04-23T07:28:55.594Z,91.18
2017-04-23T07:30:06.626Z,91.08
2017-04-23T07:31:17.644Z,90.37
2017-04-23T07:32:28.716Z,90
2017-04-23T07:33:39.751Z,91.71
2017-04-23T07:34:50.982Z,91.42
2017-04-23T07:36:02.017Z,91.8
2017-04-23T07:37:13.055Z,89.56
2017-04-23T07:38:24.077Z,86.71
2017-04-23T07:39:35.307Z,86.66
2017-04-23T07:40:46.743Z,84.56
2017-04-23T07:41:57.812Z,81.85
2017-04-23T07:43:08.846Z,79.85
2017-04-23T07:44:19.887Z,79.8
2017-04-23T07:45:31.118Z,77.55
2017-04-23T07:46:42.358Z,75.26
2017-04-23T07:47:53.404Z,73.33
2017-04-23T07:49:04.439Z,71.43
2017-04-23T07:50:15.485Z,68.88
2017-04-23T07:51:26.511Z,68.41
2017-04-23T07:52:37.596Z,69.74
2017-04-23T07:53:48.661Z,70.03
2017-04-23T07:54:59.696Z,69.56
2017-04-23T07:56:10.743Z,69.52
2017-04-23T07:57:21.966Z,70.38
2017-04-23T07:58:33.008Z,72.09
2017-04-23T07:59:44.252Z,71.91
2017-04-23T08:00:55.286Z,71.48
2017-04-23T08:02:06.313Z,72.92
2017-04-23T08:03:17.808Z,72.97
2017-04-23T08:04:28.854Z,74.02
2017-04-23T08:05:39.889Z,73.68
2017-04-23T08:06:50.928Z,73.11
2017-04-23T08:08:01.957Z,72.82
2017-04-23T08:09:12.999Z,72.34
2017-04-23T08:10:24.048Z,73.49
2017-04-23T08:11:35.494Z,73.83
2017-04-23T08:12:46.545Z,73.36
2017-04-23T08:13:57.792Z,73.55
2017-04-23T08:15:09.073Z,73.83
2017-04-23T08:16:20.164Z,73.83
2017-04-23T08:17:31.200Z,73.65
2017-04-23T08:18:42.247Z,74.5
2017-04-23T08:19:53.304Z,74.94
2017-04-23T08:21:04.353Z,74.94
2017-04-23T08:22:15.377Z,74.84
2017-04-23T08:23:26.408Z,75.13
2017-04-23T08:24:37.485Z,74.84
2017-04-23T08:25:48.508Z,75.89
2017-04-23T08:26:59.742Z,75.42
2017-04-23T08:28:10.973Z,75.42
2017-04-23T08:29:22.007Z,75.99
2017-04-23T08:30:33.044Z,75.95
2017-04-23T08:31:44.272Z,76.14
2017-04-23T08:32:55.298Z,76.42
2017-04-23T08:34:06.322Z,75.95
2017-04-23T08:35:17.395Z,76.23
2017-04-23T08:36:28.430Z,76.33
2017-04-23T08:37:39.456Z,75.99
2017-04-23T08:38:50.494Z,73.13
2017-04-23T08:40:01.518Z,72.21
2017-04-23T08:41:12.558Z,70.06
2017-04-23T08:42:23.630Z,70.47
2017-04-23T08:43:34.863Z,68.66
2017-04-23T08:44:45.905Z,68.47
2017-04-23T08:45:56.990Z,68.47
2017-04-23T08:47:08.229Z,67.36
2017-04-23T08:48:19.276Z,68.12
2017-04-23T08:49:30.334Z,68.41
2017-04-23T08:50:41.364Z,68.41
2017-04-23T08:51:52.600Z,69.17
2017-04-23T08:53:03.647Z,68.54
2017-04-23T08:54:14.667Z,67.46
2017-04-23T08:55:25.701Z,68.03
2017-04-23T08:56:36.740Z,67.74
2017-04-23T08:57:48.026Z,67.61
2017-04-23T08:58:59.071Z,67.8
2017-04-23T09:00:10.106Z,68.82
2017-04-23T09:01:21.340Z,69.58
2017-04-23T09:02:32.375Z,68.82
2017-04-23T09:03:43.605Z,68.59
2017-04-23T09:04:54.645Z,68.44
2017-04-23T09:06:05.674Z,69.01
2017-04-23T09:07:16.752Z,67.42
2017-04-23T09:08:27.793Z,65.74
2017-04-23T09:09:39.227Z,65.67
2017-04-23T09:10:50.255Z,64.91
2017-04-23T09:12:01.300Z,64.81
2017-04-23T09:13:12.334Z,64.81
2017-04-23T09:14:23.366Z,65.87
2017-04-23T09:15:34.413Z,64.91
2017-04-23T09:16:45.470Z,65.48
2017-04-23T09:17:56.554Z,65.1
2017-04-23T09:19:07.595Z,65.36
2017-04-23T09:20:19.042Z,66.22
2017-04-23T09:21:30.085Z,66.41
2017-04-23T09:22:41.110Z,67.8
2017-04-23T09:23:52.396Z,68.18
2017-04-23T09:25:03.423Z,68.76
2017-04-23T09:26:14.458Z,68.47
2017-04-23T09:27:25.488Z,68.24
2017-04-23T09:28:36.529Z,68.63
2017-04-23T09:29:47.564Z,69.77
2017-04-23T09:30:58.796Z,69.58
2017-04-23T09:32:09.839Z,70.72
2017-04-23T09:33:20.862Z,70.63
2017-04-23T09:34:31.908Z,70.15
2017-04-23T09:35:42.990Z,70.5
2017-04-23T09:36:54.024Z,70.5
2017-04-23T09:38:05.247Z,70.4
2017-04-23T09:39:16.319Z,70.63
2017-04-23T09:40:27.352Z,70.12
2017-04-23T09:41:38.380Z,69.77
2017-04-23T09:42:49.418Z,69.74
2017-04-23T09:44:00.452Z,69.45
2017-04-23T09:45:11.474Z,69.93
2017-04-23T09:46:22.524Z,70.5
2017-04-23T09:47:33.556Z,70.88
2017-04-23T09:48:44.579Z,71.17
2017-04-23T09:49:55.603Z,72.21
2017-04-23T09:51:06.693Z,73.36
2017-04-23T09:52:17.723Z,73.07
2017-04-23T09:53:28.747Z,72.5
2017-04-23T09:54:40.173Z,72.69
2017-04-23T09:55:51.214Z,71.55
2017-04-23T09:57:02.243Z,71.73
2017-04-23T09:58:13.283Z,71.93
2017-04-23T09:59:24.529Z,70.69
2017-04-23T10:00:35.614Z,69.83
2017-04-23T10:01:46.846Z,72.12
2017-04-23T10:02:57.871Z,70.78
2017-04-23T10:04:08.894Z,70.78
2017-04-23T10:05:20.318Z,70.25
2017-04-23T10:06:31.342Z,70.82
2017-04-23T10:07:42.572Z,71.26
2017-04-23T10:08:53.595Z,72.21
2017-04-23T10:10:04.639Z,72.5
2017-04-23T10:11:15.654Z,71.93
2017-04-23T10:12:26.882Z,72.31
2017-04-23T10:13:38.194Z,73.36
2017-04-23T10:14:49.226Z,73.07
2017-04-23T10:16:00.265Z,72.41
2017-04-23T10:17:11.301Z,72.5
2017-04-23T10:18:22.391Z,72.02
2017-04-23T10:19:33.436Z,71.26
2017-04-23T10:20:44.482Z,72.12
2017-04-23T10:21:55.522Z,72.88
2017-04-23T10:23:06.538Z,72.6
2017-04-23T10:24:17.569Z,72.5
2017-04-23T10:25:28.607Z,73.07
2017-04-23T10:26:39.647Z,73.26
2017-04-23T10:27:50.751Z,73.07
2017-04-23T10:29:01.784Z,75.74
2017-04-23T10:30:12.859Z,76.5
2017-04-23T10:31:23.898Z,79.74
2017-04-23T10:32:34.946Z,80.5
2017-04-23T10:33:45.980Z,81.23
2017-04-23T10:34:57.011Z,81.98
2017-04-23T10:36:08.045Z,80.88
2017-04-23T10:37:19.072Z,80.6
2017-04-23T10:38:30.552Z,78.69
2017-04-23T10:39:41.822Z,78.31
2017-04-23T10:40:53.047Z,78.16
2017-04-23T10:42:04.079Z,77.69
2017-04-23T10:43:15.321Z,77.49
2017-04-23T10:44:26.417Z,76.29
2017-04-23T10:45:37.452Z,76.01
2017-04-23T10:46:48.486Z,75.81
2017-04-23T10:47:59.767Z,74.48
2017-04-23T10:49:11.004Z,73.91
2017-04-23T10:50:22.049Z,72.76
2017-04-23T10:51:33.077Z,71.84
2017-04-23T10:52:44.108Z,72.32
2017-04-23T10:53:55.143Z,72.13
2017-04-23T10:55:06.381Z,70.83
2017-04-23T10:56:17.471Z,69.59
2017-04-23T10:57:28.506Z,69.43
2017-04-23T10:58:39.534Z,69.53
2017-04-23T10:59:50.568Z,69.82
2017-04-23T11:01:01.619Z,69.72
2017-04-23T11:02:12.652Z,68.41
2017-04-23T11:03:23.690Z,67.08
2017-04-23T11:04:34.923Z,66.73
2017-04-23T11:05:46.017Z,65.68
2017-04-23T11:06:57.051Z,65.58
2017-04-23T11:08:08.081Z,65.48
2017-04-23T11:09:19.337Z,65.33
2017-04-23T11:10:30.584Z,63.03
2017-04-23T11:11:41.632Z,61.82
2017-04-23T11:12:52.684Z,62.17
2017-04-23T11:14:03.730Z,61.22
2017-04-23T11:15:14.979Z,62.46
2017-04-23T11:16:26.069Z,62.4
2017-04-23T11:17:37.106Z,60.13
2017-04-23T11:18:48.352Z,59.84
2017-04-23T11:19:59.600Z,58.88
2017-04-23T11:21:10.846Z,59.43
2017-04-23T11:22:21.885Z,59.91
2017-04-23T11:23:32.929Z,59.91
2017-04-23T11:24:43.972Z,59.45
2017-04-23T11:25:55.206Z,58.12
2017-04-23T11:27:06.245Z,58.98
2017-04-23T11:28:17.492Z,58.44
2017-04-23T11:29:28.743Z,58.37
2017-04-23T11:30:39.776Z,58.17
2017-04-23T11:31:51.024Z,58.62
2017-04-23T11:33:02.268Z,60.61
2017-04-23T11:34:13.320Z,61.63
2017-04-23T11:35:24.357Z,61.6
2017-04-23T11:36:35.402Z,61.51
2017-04-23T11:37:46.484Z,61.95
2017-04-23T11:38:57.525Z,63.73
2017-04-23T11:40:08.556Z,64.59
2017-04-23T11:41:19.607Z,65.33
2017-04-23T11:42:30.654Z,66.76
2017-04-23T11:43:41.703Z,67.21
2017-04-23T11:44:52.955Z,66.53
2017-04-23T11:46:03.975Z,67.4
2017-04-23T11:47:15.216Z,68.63
2017-04-23T11:48:26.494Z,68.92
2017-04-23T11:49:37.542Z,69.11
2017-04-23T11:50:48.774Z,69.37
2017-04-23T11:52:00.015Z,70.13
2017-04-23T11:53:11.041Z,71.27
2017-04-23T11:54:22.073Z,72.32
2017-04-23T11:55:33.102Z,72.38
2017-04-23T11:56:44.145Z,73.24
2017-04-23T11:57:55.183Z,73.24
2017-04-23T11:59:06.273Z,72.19
2017-04-23T12:00:17.297Z,73.05
2017-04-23T12:01:28.335Z,73.14
2017-04-23T12:02:39.379Z,72.57
2017-04-23T12:03:50.405Z,73.33
2017-04-23T12:05:01.439Z,72.67
2017-04-23T12:06:12.474Z,72.19
2017-04-23T12:07:23.504Z,72.86
2017-04-23T12:08:34.739Z,72.48
2017-04-23T12:09:45.762Z,73.24
2017-04-23T12:10:56.790Z,73.14
2017-04-23T12:12:07.828Z,73.49
2017-04-23T12:13:18.863Z,72.06
2017-04-23T12:14:29.901Z,72.72
2017-04-23T12:15:40.953Z,73.87
2017-04-23T12:16:52.440Z,74.73
2017-04-23T12:18:03.476Z,72.72
2017-04-23T12:19:14.543Z,73.21
2017-04-23T12:20:25.768Z,75.01
2017-04-23T12:21:36.803Z,71.64
2017-04-23T12:22:48.020Z,72.41
2017-04-23T12:23:59.050Z,72.6
2017-04-23T12:25:10.285Z,73.65
2017-04-23T12:26:21.368Z,72.69
2017-04-23T12:27:32.599Z,72.02
2017-04-23T12:28:43.683Z,71.01
2017-04-23T12:29:54.727Z,71.11
2017-04-23T12:31:05.754Z,70.63
2017-04-23T12:32:16.791Z,70
2017-04-23T12:33:28.032Z,70.67
2017-04-23T12:34:39.066Z,70.03
2017-04-23T12:35:50.181Z,67.65
2017-04-23T12:37:01.319Z,68.03
2017-04-23T12:38:12.438Z,67.93
2017-04-23T12:39:23.626Z,67.74
2017-04-23T12:40:34.750Z,67.97
2017-04-23T12:41:45.896Z,68.06
2017-04-23T12:42:57.139Z,65.9
2017-04-23T12:44:08.234Z,65.23
2017-04-23T12:45:19.327Z,64.56
2017-04-23T12:46:30.501Z,63.16
2017-04-23T12:47:41.730Z,63.16
2017-04-23T12:48:52.832Z,60.71
2017-04-23T12:50:04.141Z,60.52
2017-04-23T12:51:15.521Z,59.94
2017-04-23T12:52:26.678Z,61.19
2017-04-23T12:53:38.046Z,61.82
2017-04-23T12:54:49.673Z,61.16
2017-04-23T12:56:00.773Z,62.3
2017-04-23T12:57:11.900Z,62.27
2017-04-23T12:58:23.609Z,63.03
2017-04-23T12:59:34.679Z,62.65
2017-04-23T13:00:45.835Z,63.16
2017-04-23T13:01:56.994Z,62.3
2017-04-23T13:03:08.269Z,61.54
2017-04-23T13:04:19.681Z,61.25
2017-04-23T13:05:30.832Z,63.13
2017-04-23T13:06:41.942Z,63.23
2017-04-23T13:07:53.035Z,62.18
2017-04-23T13:09:04.157Z,63.1
2017-04-23T13:10:15.374Z,63.67
2017-04-23T13:11:26.917Z,63.57
2017-04-23T13:12:38.020Z,64.91
2017-04-23T13:13:49.278Z,65.1
2017-04-23T13:15:00.664Z,64.62
2017-04-23T13:16:11.925Z,64.72
2017-04-23T13:17:23.042Z,64.25
2017-04-23T13:18:34.402Z,62.46
2017-04-23T13:19:45.525Z,63.03
2017-04-23T13:20:56.579Z,62.37
2017-04-23T13:22:07.724Z,62.65
2017-04-23T13:23:19.365Z,63.2
2017-04-23T13:24:30.538Z,62.71
2017-04-23T13:25:42.144Z,62.52
2017-04-23T13:26:53.479Z,61.19
2017-04-23T13:28:04.726Z,63.57
2017-04-23T13:29:15.822Z,65.48
2017-04-23T13:30:26.978Z,63.96
2017-04-23T13:31:38.181Z,63.96
2017-04-23T13:32:49.268Z,63.39
2017-04-23T13:34:00.834Z,63.67
2017-04-23T13:35:12.029Z,63.83
2017-04-23T13:36:23.181Z,65.64
2017-04-23T13:37:34.749Z,65.36
2017-04-23T13:38:45.883Z,66.22
2017-04-23T13:39:57.119Z,65.74
2017-04-23T13:41:08.466Z,66.6
2017-04-23T13:42:19.628Z,66.6
2017-04-23T13:43:30.794Z,67.71
2017-04-23T13:44:41.914Z,67.52
2017-04-23T13:45:53.311Z,67.33
2017-04-23T13:47:04.430Z,66.94
2017-04-23T13:48:15.758Z,67.71
2017-04-23T13:49:26.830Z,68.76
2017-04-23T13:50:37.932Z,67.71
2017-04-23T13:51:49.029Z,68.57
2017-04-23T13:53:00.132Z,70
2017-04-23T13:54:11.455Z,70.09
2017-04-23T13:55:22.699Z,70.19
2017-04-23T13:56:34.134Z,71.43
2017-04-23T13:57:45.292Z,69.52
2017-04-23T13:58:56.465Z,68.95
2017-04-23T14:00:08.160Z,69.71
2017-04-23T14:01:19.345Z,69.33
2017-04-23T14:02:30.571Z,68.76
2017-04-23T14:03:41.932Z,69.43
2017-04-23T14:04:53.244Z,69.43
2017-04-23T14:06:04.434Z,70.09
2017-04-23T14:07:15.933Z,69.81
2017-04-23T14:08:27.162Z,70.57
2017-04-23T14:09:38.290Z,70.09
2017-04-23T14:10:50.070Z,68.51
2017-04-23T14:12:02.100Z,68.88
2017-04-23T14:13:14.537Z,67.27
2017-04-23T14:14:26.623Z,67.36
2017-04-23T14:15:38.411Z,68.7
2017-04-23T14:16:51.141Z,67.93
2017-04-23T14:18:04.043Z,66.5
2017-04-23T14:19:15.685Z,67.74
2017-04-23T14:20:27.690Z,68.7
2017-04-23T14:21:40.116Z,68.66
2017-04-23T14:22:51.326Z,68.95
2017-04-23T14:24:02.622Z,69.62
2017-04-23T14:25:13.831Z,70.13
2017-04-23T14:26:24.997Z,70.13
2017-04-23T14:27:36.127Z,69.27
2017-04-23T14:28:47.501Z,69.37
2017-04-23T14:29:58.645Z,70.42
2017-04-23T14:31:09.727Z,69.78
2017-04-23T14:32:20.861Z,68.82
2017-04-23T14:33:31.929Z,68.82
2017-04-23T14:34:43.043Z,68.82
2017-04-23T14:35:54.181Z,67.01
2017-04-23T14:37:05.299Z,66.35
2017-04-23T14:38:16.367Z,66.44
2017-04-23T14:39:27.492Z,66.72
2017-04-23T14:40:38.594Z,68.54
2017-04-23T14:41:49.693Z,67.97
2017-04-23T14:43:00.971Z,67.87
2017-04-23T14:44:12.062Z,68.06
2017-04-23T14:45:23.118Z,68.35
2017-04-23T14:46:34.192Z,66.72
2017-04-23T14:47:45.282Z,65.77
2017-04-23T14:48:56.358Z,65.87
2017-04-23T14:50:07.404Z,67.87
2017-04-23T14:51:18.462Z,68.73
2017-04-23T14:52:29.510Z,67.77
2017-04-23T14:53:40.770Z,67.97
2017-04-23T14:54:51.816Z,66.53
2017-04-23T14:56:02.866Z,66.35
2017-04-23T14:57:13.919Z,64.56
2017-04-23T14:58:25.022Z,64.62
2017-04-23T14:59:36.085Z,64.75
2017-04-23T15:00:47.149Z,66.47
2017-04-23T15:01:58.213Z,64.75
2017-04-23T15:03:09.487Z,64.75
2017-04-23T15:04:20.521Z,65.1
2017-04-23T15:05:31.583Z,64.25
2017-04-23T15:06:42.642Z,65.2
2017-04-23T15:07:53.949Z,65.01
2017-04-23T15:09:05.022Z,65.58
2017-04-23T15:10:16.068Z,65.01
2017-04-23T15:11:27.122Z,65.58
2017-04-23T15:12:38.158Z,65.2
2017-04-23T15:13:49.224Z,65.58
2017-04-23T15:15:00.300Z,63.39
2017-04-23T15:16:11.337Z,62.81
2017-04-23T15:17:22.381Z,63.86
2017-04-23T15:18:33.495Z,64.15